Latest Weather Observations for Launceston Airport

IDT60801

Issued at 5:32 am EDT Tuesday 21 November 2017 (issued every 30 minutes, with the page automatically refreshed every 10 minutes)

About weather observations | Map of weather stations | Latest weather observations for TAS | Other Formats
Station Details ID: 091311 Name: LAUNCESTON AIRPORT Lat: -41.55 Lon: 147.21 Height: 166.9 m
Data from the previous 72 hours. | See also: Recent months at Launceston Airport
Date/Time
EDT
Temp
°C
App
Temp
°C
Dew
Point
°C
Rel
Hum
%
Delta-T
°C
Wind Press
QNH
hPa
Press
MSL
hPa
Rain since
9am
mm
Dir  Spd
km/h
Gust
km/h
Spd
kts
Gust
kts
21/05:30am 9.1 8.3 8.3 95 0.4 ESE 2 6 1 3 1024.4 1024.3 0.0
21/05:00am 8.9 7.3 8.0 94 0.4 ESE 6 7 3 4 1024.1 1024.1 0.0
21/04:44am 9.0 7.4 8.2 95 0.4 ENE 6 9 3 5 1024.1 1024.1 0.0
21/04:30am 9.2 7.7 8.4 95 0.4 E 6 9 3 5 1024.1 1024.1 0.0
21/04:00am 9.3 7.7 8.1 92 0.6 NW 6 7 3 4 1024.2 1024.2 0.0
21/03:52am 10.5 9.3 9.7 95 0.4 NW 6 7 3 4 1024.4 1024.3 0.0
21/03:46am 10.9 9.6 10.1 95 0.4 NNW 7 9 4 5 1024.4 1024.3 0.0
21/03:31am 10.2 8.3 9.1 93 0.5 NNW 9 13 5 7 1024.4 1024.3 0.0
21/03:30am 10.1 8.2 9.0 93 0.5 NNW 9 13 5 7 1024.4 1024.3 0.0
21/03:00am 12.0 9.7 10.6 91 0.7 NW 13 17 7 9 1024.4 1024.3 0.0
21/02:30am 12.3 10.3 11.5 95 0.4 WNW 13 15 7 8 1024.5 1024.4 0.0
21/02:00am 11.5 9.7 10.7 95 0.4 NNW 11 11 6 6 1024.5 1024.4 0.0
21/01:30am 10.7 8.0 9.1 90 0.8 NW 13 15 7 8 1024.9 1024.8 0.0
21/01:00am 11.8 9.3 9.7 87 1.1 NNW 13 15 7 8 1025.0 1024.9 0.0
21/12:30am 13.4 11.3 11.3 87 1.1 NW 13 15 7 8 1025.1 1025.0 0.0
21/12:00am 13.6 11.8 10.8 83 1.5 NW 11 15 6 8 1025.3 1025.2 0.0
 
Date/Time
EDT
Temp
°C
App
Temp
°C
Dew
Point
°C
Rel
Hum
%
Delta-T
°C
Wind Press
QNH
hPa
Press
MSL
hPa
Rain since
9am
mm
Dir  Spd
km/h
Gust
km/h
Spd
kts
Gust
kts
20/11:30pm 14.4 12.0 11.4 82 1.6 NW 15 19 8 10 1025.6 1025.5 0.0
20/11:00pm 14.5 12.0 10.9 79 1.9 NW 15 19 8 10 1025.4 1025.3 0.0
20/10:30pm 15.6 12.9 11.6 77 2.2 NW 17 19 9 10 1025.4 1025.3 0.0
20/10:00pm 16.5 13.1 11.2 71 2.9 NW 20 24 11 13 1025.5 1025.4 0.0
20/09:30pm 17.1 13.7 11.4 69 3.1 NW 20 26 11 14 1025.3 1025.2 0.0
20/09:00pm 17.6 14.4 11.4 67 3.4 NW 19 26 10 14 1024.9 1024.8 0.0
20/08:30pm 17.4 14.2 11.4 68 3.3 NNW 19 22 10 12 1024.8 1024.7 0.0
20/08:00pm 18.6 14.9 11.4 63 3.9 NNW 22 26 12 14 1024.5 1024.4 0.0
20/07:30pm 19.8 15.9 12.1 61 4.3 NNW 24 30 13 16 1024.1 1024.1 0.0
20/07:00pm 20.6 17.1 12.3 59 4.7 NNW 22 30 12 16 1023.9 1023.9 0.0
20/06:30pm 21.1 16.9 12.3 57 5.0 NNW 26 32 14 17 1023.7 1023.7 0.0
20/06:00pm 22.0 16.5 12.0 53 5.6 NW 32 41 17 22 1023.5 1023.5 0.0
20/05:30pm 22.7 18.2 12.6 53 5.8 NW 28 35 15 19 1023.4 1023.4 0.0
20/05:00pm 23.2 18.3 12.5 51 6.1 NNW 30 39 16 21 1023.2 1023.2 0.0
20/04:30pm 24.7 20.0 12.0 45 7.3 NW 28 35 15 19 1023.3 1023.3 0.0
20/04:00pm 24.5 20.2 12.1 46 7.1 NNW 26 35 14 19 1023.4 1023.4 0.0
20/03:30pm 26.1 22.4 11.5 40 8.4 NW 22 32 12 17 1023.5 1023.5 0.0
20/03:00pm 26.2 22.3 10.8 38 8.7 NW 22 32 12 17 1023.7 1023.7 0.0
20/02:30pm 25.3 21.6 10.0 38 8.5 NNW 20 33 11 18 1023.9 1023.9 0.0
20/02:00pm 25.8 22.6 10.0 37 8.8 NW 17 26 9 14 1024.1 1024.1 0.0
20/01:30pm 25.0 21.3 9.3 37 8.6 NW 19 26 10 14 1024.6 1024.5 0.0
20/01:00pm 24.0 21.2 9.9 41 7.7 NW 15 24 8 13 1024.9 1024.8 0.0
20/12:30pm 24.5 22.4 11.1 43 7.6 NNW 13 24 7 13 1025.1 1025.0 0.0
20/12:00pm 22.8 20.7 9.6 43 7.2 N 11 22 6 12 1025.3 1025.2 0.0
20/11:30am 23.0 21.6 12.3 51 6.1 NW 11 20 6 11 1025.7 1025.6 0.0
20/11:00am 22.1 20.0 9.6 45 6.8 WNW 11 17 6 9 1026.1 1026.0 0.0
20/10:30am 21.5 20.2 10.0 48 6.3 NNW 7 11 4 6 1026.4 1026.3 0.0
20/10:00am 20.0 18.7 10.1 53 5.3 S 7 11 4 6 1026.5 1026.4 0.0
20/09:30am 19.1 17.9 10.4 57 4.7 SSE 7 13 4 7 1026.7 1026.6 0.0
20/09:00am 18.8 17.8 10.9 60 4.3 ESE 7 9 4 5 1026.6 1026.5 0.0
20/08:30am 17.1 16.0 10.7 66 3.5 E 7 9 4 5 1026.8 1026.7 0.0
20/08:00am 16.2 15.1 9.8 66 3.4 ESE 6 9 3 5 1026.9 1026.8 0.0
20/07:30am 14.7 14.0 10.1 74 2.4 S 4 7 2 4 1026.8 1026.7 0.0
20/07:00am 12.8 11.7 9.8 82 1.5 SSE 6 6 3 3 1026.4 1026.3 0.0
20/06:30am 11.2 11.1 9.3 88 1.0 CALM 0 0 0 0 1026.0 1025.9 0.0
20/06:00am 8.8 6.9 6.6 86 1.0 ENE 6 9 3 5 1025.8 1025.7 0.0
20/05:30am 10.4 10.0 8.2 86 1.1 CALM 0 0 0 0 1026.0 1025.9 0.0
20/05:00am 10.5 10.0 7.7 83 1.4 CALM 0 4 0 2 1025.7 1025.6 0.0
20/04:30am 10.7 9.2 8.6 87 1.0 SE 6 7 3 4 1025.5 1025.4 0.0
20/04:00am 11.2 11.1 9.5 89 0.9 CALM 0 0 0 0 1025.7 1025.6 0.0
20/03:30am 11.2 10.4 8.2 82 1.5 W 2 6 1 3 1025.7 1025.6 0.0
20/03:00am 12.6 11.3 10.0 84 1.3 W 7 9 4 5 1025.6 1025.5 0.0
20/02:30am 12.3 12.5 10.4 88 1.0 CALM 0 0 0 0 1025.4 1025.3 0.0
20/02:00am 12.6 12.9 10.8 89 0.9 CALM 0 0 0 0 1025.5 1025.4 0.0
20/01:30am 12.2 11.1 9.9 86 1.2 N 6 7 3 4 1025.7 1025.6 0.0
20/01:00am 13.0 12.9 9.4 79 1.8 CALM 0 0 0 0 1025.9 1025.8 0.0
20/12:30am 13.6 13.7 10.0 79 1.9 CALM 0 0 0 0 1025.9 1025.8 0.0
20/12:00am 13.7 13.0 10.1 79 1.9 E 4 6 2 3 1026.0 1025.9 0.0
 
Date/Time
EDT
Temp
°C
App
Temp
°C
Dew
Point
°C
Rel
Hum
%
Delta-T
°C
Wind Press
QNH
hPa
Press
MSL
hPa
Rain since
9am
mm
Dir  Spd
km/h
Gust
km/h
Spd
kts
Gust
kts
19/11:30pm 15.6 13.3 10.4 71 2.8 WNW 13 15 7 8 1025.9 1025.8 0.0
19/11:00pm 15.7 13.4 10.5 71 2.8 W 13 15 7 8 1025.8 1025.7 0.0
19/10:30pm 15.6 12.9 10.4 71 2.8 NW 15 17 8 9 1025.8 1025.7 0.0
19/10:00pm 15.8 13.0 9.9 68 3.1 NW 15 19 8 10 1025.5 1025.4 0.0
19/09:30pm 17.6 14.4 11.2 66 3.5 NW 19 26 10 14 1025.2 1025.1 0.0
19/09:00pm 17.5 13.5 10.4 63 3.8 NNW 22 28 12 15 1024.9 1024.8 0.0
19/08:30pm 18.0 13.5 9.9 59 4.3 NNW 24 30 13 16 1024.7 1024.6 0.0
19/08:00pm 19.2 14.4 10.2 56 4.8 NNW 26 33 14 18 1024.4 1024.3 0.0
19/07:30pm 20.5 15.8 10.6 53 5.4 NW 26 33 14 18 1023.9 1023.9 0.0
19/07:00pm 21.5 16.9 11.2 52 5.7 NNW 26 32 14 17 1023.6 1023.6 0.0
19/06:30pm 22.5 17.9 10.9 48 6.5 NNW 26 33 14 18 1023.2 1023.2 0.0
19/06:00pm 23.5 18.9 11.2 46 6.9 NNW 26 35 14 19 1022.9 1022.8 0.0
19/05:30pm 24.3 18.9 10.9 43 7.5 NW 30 39 16 21 1022.8 1022.7 0.0
19/05:00pm 24.6 19.9 10.8 42 7.7 NW 26 39 14 21 1023.0 1023.0 0.0
19/04:30pm 25.0 19.9 10.5 40 8.1 NW 28 37 15 20 1023.0 1023.0 0.0
19/04:00pm 25.5 21.2 10.9 40 8.2 NW 24 37 13 20 1023.1 1023.1 0.0
19/03:30pm 25.3 21.1 11.1 41 8.1 NW 24 39 13 21 1023.2 1023.2 0.0
19/03:00pm 24.9 21.2 10.0 39 8.2 NNW 20 30 11 16 1023.5 1023.5 0.0
19/02:30pm 24.6 20.0 9.7 39 8.2 NW 24 33 13 18 1023.6 1023.6 0.0
19/02:00pm 25.7 22.4 11.5 41 8.1 NW 20 28 11 15 1023.9 1023.9 0.0
19/01:30pm 24.6 20.8 9.7 39 8.2 NW 20 30 11 16 1024.4 1024.3 0.0
19/01:00pm 23.7 20.9 10.0 42 7.5 NW 15 24 8 13 1024.5 1024.4 0.0
19/12:30pm 24.3 21.0 9.5 39 8.1 NNW 17 30 9 16 1024.8 1024.7 0.0
19/12:00pm 23.2 20.3 9.6 42 7.4 NW 15 26 8 14 1025.0 1024.9 0.0
19/11:30am 22.8 19.2 8.5 40 7.6 NNW 17 30 9 16 1024.9 1024.8 0.0
19/11:00am 22.2 19.3 11.0 49 6.2 NNW 17 26 9 14 1024.8 1024.7 0.0
19/10:30am 22.2 20.5 11.3 50 6.1 NNW 11 19 6 10 1024.9 1024.8 0.0
19/10:00am 20.7 19.2 10.5 52 5.6 WNW 9 17 5 9 1024.9 1024.8 0.0
19/09:30am 19.6 18.2 10.9 57 4.8 NNW 9 13 5 7 1025.1 1025.0 0.0
19/09:00am 18.6 17.6 10.9 61 4.2 WNW 7 11 4 6 1025.0 1024.9 0.0
19/08:30am 18.5 18.1 12.3 67 3.5 SSE 6 11 3 6 1025.1 1025.0 0.0
19/08:00am 17.2 16.6 12.3 73 2.7 ESE 7 9 4 5 1025.0 1024.9 0.0
19/07:30am 15.7 14.7 12.3 80 1.9 S 9 11 5 6 1025.1 1025.0 0.0
19/07:00am 14.1 13.2 11.3 83 1.5 S 7 9 4 5 1024.8 1024.7 0.0
19/06:30am 12.0 10.4 10.2 89 0.9 SSW 9 11 5 6 1024.5 1024.4 0.0
19/06:00am 10.1 8.6 8.5 90 0.8 S 6 7 3 4 1024.0 1024.0 0.0
19/05:30am 9.8 8.0 8.1 89 0.8 ESE 7 9 4 5 1023.9 1023.9 0.0
19/05:00am 11.0 9.5 8.6 85 1.2 SSE 6 7 3 4 1023.9 1023.9 0.0
19/04:30am 11.7 10.4 9.3 85 1.2 ENE 6 9 3 5 1023.8 1023.8 0.0
19/04:00am 13.0 9.9 10.2 83 1.5 NW 17 19 9 10 1023.8 1023.8 0.0
19/03:30am 10.7 8.4 7.6 81 1.5 WNW 9 11 5 6 1023.7 1023.7 0.0
19/03:00am 12.2 10.4 9.4 83 1.4 W 9 13 5 7 1023.6 1023.6 0.0
19/02:30am 12.7 11.1 10.1 84 1.3 WSW 9 13 5 7 1023.7 1023.7 0.0
19/02:00am 12.5 10.8 9.7 83 1.4 SSW 9 13 5 7 1023.6 1023.6 0.0
19/01:30am 13.1 11.5 8.6 74 2.3 W 7 9 4 5 1023.7 1023.7 0.0
19/01:00am 12.9 11.5 9.0 77 2.0 NNW 6 6 3 3 1023.9 1023.9 0.0
19/12:30am 13.4 12.1 9.1 75 2.2 WSW 6 7 3 4 1024.0 1024.0 0.0
19/12:00am 12.1 10.3 8.0 76 2.0 SW 7 9 4 5 1024.0 1024.0 0.0
 
Date/Time
EDT
Temp
°C
App
Temp
°C
Dew
Point
°C
Rel
Hum
%
Delta-T
°C
Wind Press
QNH
hPa
Press
MSL
hPa
Rain since
9am
mm
Dir  Spd
km/h
Gust
km/h
Spd
kts
Gust
kts
18/11:30pm 14.9 13.6 9.1 68 3.0 W 6 7 3 4 1023.7 1023.7 0.0
18/11:00pm 14.7 13.5 9.5 71 2.7 N 6 9 3 5 1023.8 1023.8 0.0
18/10:30pm 14.9 12.7 9.3 69 2.9 N 11 15 6 8 1023.7 1023.7 0.0
18/10:00pm 15.8 12.2 9.9 68 3.1 N 19 28 10 15 1023.6 1023.6 0.0
18/09:30pm 15.9 13.1 10.0 68 3.1 NNW 15 19 8 10 1023.4 1023.4 0.0
18/09:00pm 17.4 13.7 10.1 62 3.9 N 20 28 11 15 1022.8 1022.7 0.0
18/08:30pm 18.2 14.1 10.1 59 4.3 N 22 30 12 16 1022.3 1022.2 0.0
18/08:00pm 18.5 14.6 9.6 56 4.7 NNW 20 32 11 17 1022.2 1022.1 0.0
18/07:30pm 20.1 16.5 10.5 54 5.2 NNW 20 30 11 16 1021.7 1021.6 0.0
18/07:00pm 21.2 17.8 11.2 53 5.5 NNW 20 28 11 15 1021.3 1021.2 0.0
18/06:30pm 21.7 17.9 11.1 51 5.9 N 22 30 12 16 1021.0 1020.9 0.0
18/06:00pm 23.2 18.9 10.6 45 7.0 NNW 24 32 13 17 1020.9 1020.8 0.0
18/05:30pm 23.3 18.9 10.4 44 7.2 NNW 24 32 13 17 1020.8 1020.7 0.0
18/05:00pm 23.4 20.4 12.4 50 6.3 NNW 20 28 11 15 1020.9 1020.8 0.0
18/04:30pm 22.1 19.1 11.8 52 5.8 NNW 19 24 10 13 1021.0 1020.9 0.0
18/04:00pm 22.3 18.4 10.8 48 6.4 NNW 22 28 12 15 1021.1 1021.0 0.0
18/03:30pm 22.8 19.1 11.5 49 6.4 NNW 22 30 12 16 1021.2 1021.1 0.0
18/03:00pm 23.0 18.9 11.4 48 6.5 NNW 24 32 13 17 1021.3 1021.2 0.0
18/02:30pm 21.8 18.1 11.5 52 5.8 NNW 22 28 12 15 1021.7 1021.6 0.0
18/02:00pm 22.6 17.7 11.4 49 6.3 N 28 37 15 20 1021.6 1021.5 0.0
18/01:30pm 22.6 18.3 12.0 51 6.0 N 26 32 14 17 1021.6 1021.5 0.0
18/01:00pm 23.0 17.8 10.4 45 7.0 NNE 28 35 15 19 1021.8 1021.7 0.0
18/12:30pm 24.1 19.0 10.7 43 7.5 NNE 28 37 15 20 1021.9 1021.8 0.0
18/12:00pm 22.7 18.1 9.8 44 7.0 N 24 35 13 19 1022.0 1021.9 0.0
18/11:30am 22.6 18.9 11.4 49 6.3 NNE 22 37 12 20 1022.4 1022.3 0.0
18/11:00am 22.4 17.8 10.9 48 6.4 N 26 39 14 21 1022.6 1022.5 0.0
18/10:53am 21.4 17.5 9.6 47 6.4 N 20 37 11 20 1022.7 1022.6 0.0
18/10:30am 21.8 21.5 13.4 59 4.9 E 7 17 4 9 1022.7 1022.6 0.0
18/10:00am 20.1 19.7 12.3 61 4.4 SSE 6 11 3 6 1022.9 1022.8 0.0
18/09:30am 19.0 18.5 12.0 64 3.9 NNE 6 7 3 4 1022.9 1022.8 0.0
18/09:00am 18.6 18.2 13.0 70 3.2 NNW 7 13 4 7 1022.9 1022.8 0.2
18/08:30am 17.8 18.3 12.9 73 2.8 W 2 7 1 4 1022.9 1022.8 0.2
18/08:00am 16.6 16.2 13.1 80 2.0 SW 7 9 4 5 1022.7 1022.6 0.2
18/07:30am 16.1 15.3 12.8 81 1.8 SW 9 13 5 7 1022.5 1022.4 0.2
18/07:00am 15.9 15.0 12.6 81 1.8 SW 9 11 5 6 1022.3 1022.2 0.2
18/06:30am 15.4 14.6 12.9 85 1.4 SW 9 11 5 6 1022.1 1022.0 0.2
18/06:00am 14.4 13.1 12.4 88 1.1 WSW 11 15 6 8 1021.8 1021.7 0.2

Other Formats:

Comma delimited format used in spreadsheet applications
http://www.bom.gov.au/fwo/IDT60801/IDT60801.95966.axf

JavaScript Object Notation format (JSON) in row-major order
http://www.bom.gov.au/fwo/IDT60801/IDT60801.95966.json